Time;durP1;ratioP1;P1;durP2;ratioP2;P2;SDS_P1;SDS_P2;PMS_P1;PMS_P2;Temp;Humidity;BMP_temperature;BMP_pressure;BME280_temperature;BME280_humidity;BME280_pressure;Samples;Min_cycle;Max_cycle;Signal;HPM_P1;HPM_P2
2021/08/31 00:01:45;;;;;;;29.88;20.17;;;22.00;92.80;;;;;;5032466;28;20026;-73
2021/08/31 00:04:10;;;;;;;27.85;21.50;;;22.00;92.80;;;;;;5033629;28;20128;-72
2021/08/31 00:06:36;;;;;;;28.25;21.50;;;22.00;92.80;;;;;;5033648;28;20446;-74
2021/08/31 00:09:02;;;;;;;25.45;19.75;;;22.00;92.80;;;;;;5034101;28;20476;-72
2021/08/31 00:11:28;;;;;;;30.67;20.73;;;22.00;92.90;;;;;;5033872;28;20460;-72
2021/08/31 00:13:53;;;;;;;25.80;20.23;;;22.00;92.70;;;;;;5039087;28;20040;-72
2021/08/31 00:16:19;;;;;;;28.60;20.02;;;22.00;92.90;;;;;;5040318;28;20079;-75
2021/08/31 00:18:44;;;;;;;31.83;21.73;;;22.00;92.50;;;;;;5040220;28;20034;-72
2021/08/31 00:21:11;;;;;;;30.15;21.58;;;22.00;92.50;;;;;;5039052;28;20479;-72
2021/08/31 00:23:37;;;;;;;28.15;20.77;;;22.00;92.50;;;;;;5039211;28;20357;-72
2021/08/31 00:26:04;;;;;;;30.42;22.48;;;22.00;92.50;;;;;;5038826;28;20083;-72
2021/08/31 00:28:29;;;;;;;29.73;21.42;;;22.00;92.50;;;;;;5040428;28;20029;-72
2021/08/31 00:30:55;;;;;;;29.23;22.13;;;22.00;92.60;;;;;;5046572;28;20047;-72
2021/08/31 00:33:21;;;;;;;32.05;22.80;;;22.00;92.50;;;;;;5059820;28;20033;-73
2021/08/31 00:35:46;;;;;;;30.00;21.83;;;21.90;92.50;;;;;;5060162;28;20057;-72
2021/08/31 00:38:12;;;;;;;29.92;21.90;;;22.00;92.50;;;;;;5058568;28;20032;-72
2021/08/31 00:40:38;;;;;;;30.77;22.98;;;22.00;92.50;;;;;;5058739;28;20033;-72
2021/08/31 00:43:05;;;;;;;32.65;24.17;;;22.00;92.50;;;;;;5058803;28;20044;-72
2021/08/31 00:45:31;;;;;;;34.53;24.58;;;22.00;92.50;;;;;;5059786;28;20470;-83
2021/08/31 00:47:58;;;;;;;33.45;24.52;;;22.00;92.60;;;;;;5059698;28;20095;-83
2021/08/31 00:50:24;;;;;;;33.70;24.85;;;22.00;92.50;;;;;;5058483;28;20068;-84
2021/08/31 00:52:50;;;;;;;34.92;25.23;;;22.00;92.50;;;;;;5059855;28;20064;-84
2021/08/31 00:55:15;;;;;;;31.20;23.58;;;22.00;92.60;;;;;;5058532;28;20137;-84
2021/08/31 00:57:42;;;;;;;34.67;25.02;;;22.00;92.50;;;;;;5059671;28;20095;-85
2021/08/31 01:00:10;;;;;;;33.25;25.90;;;21.90;92.40;;;;;;5059489;28;20033;-86
2021/08/31 01:02:36;;;;;;;37.47;26.60;;;21.90;92.50;;;;;;5043541;28;20044;-85
2021/08/31 01:05:04;;;;;;;39.85;27.98;;;21.90;92.50;;;;;;5058221;28;20045;-84
2021/08/31 01:07:30;;;;;;;32.00;25.10;;;21.90;92.60;;;;;;5059810;28;20044;-84
2021/08/31 01:09:56;;;;;;;35.15;25.90;;;21.90;92.60;;;;;;5059674;28;20383;-84
2021/08/31 01:12:23;;;;;;;32.22;24.85;;;21.90;92.60;;;;;;5058375;28;20037;-83
2021/08/31 01:14:49;;;;;;;36.05;26.33;;;22.00;92.50;;;;;;5059721;28;20033;-83
2021/08/31 01:17:15;;;;;;;36.22;27.00;;;21.90;92.50;;;;;;5059679;28;20025;-83
2021/08/31 01:19:41;;;;;;;35.33;26.75;;;21.90;92.50;;;;;;5059427;28;20025;-82
2021/08/31 01:22:12;;;;;;;35.97;26.35;;;22.00;92.50;;;;;;5058261;28;20455;-83
2021/08/31 01:24:45;;;;;;;37.58;27.77;;;22.00;92.40;;;;;;5054709;28;20531;-83
2021/08/31 01:27:10;;;;;;;36.22;26.73;;;21.90;92.30;;;;;;5054818;28;20543;-82
2021/08/31 01:29:36;;;;;;;38.45;27.48;;;21.90;92.40;;;;;;5054049;28;20194;-83
2021/08/31 01:32:04;;;;;;;36.92;27.02;;;21.90;92.50;;;;;;5035181;28;20033;-87
2021/08/31 01:34:29;;;;;;;39.33;28.13;;;22.00;92.50;;;;;;5036229;28;20026;-82
2021/08/31 01:36:55;;;;;;;39.72;27.23;;;22.00;92.40;;;;;;5036152;28;20140;-83
2021/08/31 01:39:21;;;;;;;38.67;26.52;;;22.00;92.30;;;;;;5036384;28;20069;-82
2021/08/31 01:41:47;;;;;;;41.47;28.50;;;22.00;92.30;;;;;;5035053;28;20022;-81
2021/08/31 01:44:13;;;;;;;38.85;28.48;;;22.00;92.30;;;;;;5036280;28;20022;-82
2021/08/31 01:46:39;;;;;;;40.05;27.60;;;21.90;92.30;;;;;;5034917;28;20036;-81
2021/08/31 01:49:04;;;;;;;40.22;27.55;;;22.00;92.30;;;;;;5034889;28;20490;-82
2021/08/31 01:51:30;;;;;;;41.60;27.75;;;22.00;92.30;;;;;;5036156;28;20425;-82
2021/08/31 01:53:56;;;;;;;36.10;26.23;;;21.90;92.20;;;;;;5035857;28;20028;-82
2021/08/31 01:56:22;;;;;;;39.75;26.67;;;21.90;92.20;;;;;;5036337;28;20056;-82
2021/08/31 01:58:47;;;;;;;46.60;28.40;;;21.90;92.20;;;;;;5036369;28;20030;-82
2021/08/31 02:01:13;;;;;;;43.53;26.30;;;21.90;92.30;;;;;;5035936;28;20033;-82
2021/08/31 02:03:39;;;;;;;40.38;26.48;;;21.80;92.40;;;;;;5036039;28;20376;-81
2021/08/31 02:06:04;;;;;;;38.85;25.02;;;21.80;92.40;;;;;;5036873;28;20128;-82
2021/08/31 02:08:31;;;;;;;41.88;26.45;;;21.80;92.40;;;;;;5034931;28;20124;-82
2021/08/31 02:10:56;;;;;;;36.63;24.80;;;21.70;92.60;;;;;;5035742;28;20041;-81
2021/08/31 02:13:22;;;;;;;37.78;25.15;;;21.70;92.70;;;;;;5035703;28;20026;-81
2021/08/31 02:15:48;;;;;;;38.38;24.38;;;21.60;92.80;;;;;;5035331;28;20029;-82
2021/08/31 02:18:14;;;;;;;36.90;22.83;;;21.60;92.80;;;;;;5035707;28;20547;-84
2021/08/31 02:20:40;;;;;;;40.55;23.77;;;21.50;92.70;;;;;;5034739;28;20052;-82
2021/08/31 02:23:05;;;;;;;37.95;23.42;;;21.50;92.80;;;;;;5034675;28;20025;-89
2021/08/31 02:25:31;;;;;;;40.00;22.88;;;21.40;92.80;;;;;;5036761;28;20033;-75
2021/08/31 02:27:57;;;;;;;36.17;22.17;;;21.40;92.80;;;;;;5035162;28;20099;-76
2021/08/31 02:30:23;;;;;;;35.28;20.98;;;21.30;92.90;;;;;;5035309;28;20110;-74
2021/08/31 02:32:49;;;;;;;33.10;20.80;;;21.30;92.90;;;;;;5034166;28;20057;-76
2021/08/31 02:35:16;;;;;;;34.60;21.33;;;21.30;92.90;;;;;;5034117;28;20083;-76
2021/08/31 02:37:42;;;;;;;34.05;20.63;;;21.30;92.80;;;;;;5035316;28;20028;-77
2021/08/31 02:40:08;;;;;;;35.08;20.50;;;21.20;92.80;;;;;;5034930;28;20383;-76
2021/08/31 02:42:35;;;;;;;36.30;21.10;;;21.20;92.90;;;;;;5033834;28;20086;-76
2021/08/31 02:45:01;;;;;;;34.97;21.33;;;21.20;92.80;;;;;;5034020;28;20028;-76
2021/08/31 02:47:27;;;;;;;37.55;21.70;;;21.10;92.80;;;;;;5034886;28;20030;-76
2021/08/31 02:49:52;;;;;;;38.08;21.50;;;21.10;92.90;;;;;;5034974;28;20144;-76
2021/08/31 02:52:18;;;;;;;35.10;21.48;;;21.10;92.90;;;;;;5034602;28;20033;-76
2021/08/31 02:54:43;;;;;;;38.78;22.25;;;21.00;92.90;;;;;;5034058;28;20034;-76
2021/08/31 02:57:09;;;;;;;35.05;21.00;;;21.00;92.90;;;;;;5034971;28;20036;-76
2021/08/31 02:59:35;;;;;;;34.45;21.50;;;20.90;92.90;;;;;;5034524;28;20455;-76
2021/08/31 03:04:37;;;;;;;37.00;21.45;;;20.90;93.00;;;;;;5034886;28;20045;-76
2021/08/31 03:07:05;;;;;;;35.85;20.60;;;20.80;92.80;;;;;;5035046;28;20029;-76
2021/08/31 03:09:31;;;;;;;35.13;20.52;;;20.80;93.00;;;;;;5033002;28;20506;-76
2021/08/31 03:11:56;;;;;;;35.15;20.95;;;20.70;92.90;;;;;;5033089;28;20026;-76
2021/08/31 03:14:22;;;;;;;34.60;20.42;;;20.60;93.10;;;;;;5034666;28;20125;-77
2021/08/31 03:16:49;;;;;;;37.65;21.23;;;20.60;93.50;;;;;;5034329;28;20033;-76
2021/08/31 03:19:21;;;;;;;36.22;21.73;;;20.60;93.40;;;;;;5033177;28;20034;-76
2021/08/31 03:21:48;;;;;;;35.22;20.58;;;20.60;93.40;;;;;;5033053;28;20067;-77
2021/08/31 03:24:14;;;;;;;35.80;21.25;;;20.60;93.40;;;;;;5043668;28;20033;-76
2021/08/31 03:26:40;;;;;;;36.65;20.90;;;20.60;93.40;;;;;;5053178;28;20028;-76
2021/08/31 03:29:05;;;;;;;34.70;19.98;;;20.60;93.30;;;;;;5053113;28;20390;-76
2021/08/31 03:31:31;;;;;;;33.80;20.55;;;20.60;93.30;;;;;;5053992;28;20024;-77
2021/08/31 03:33:57;;;;;;;33.60;19.80;;;20.50;93.30;;;;;;5056124;28;20424;-76
2021/08/31 03:36:23;;;;;;;31.98;19.42;;;20.50;93.40;;;;;;5054474;28;20475;-76
2021/08/31 03:38:48;;;;;;;35.83;20.80;;;20.50;93.70;;;;;;5062096;28;20105;-76
2021/08/31 03:41:14;;;;;;;34.38;19.20;;;20.50;93.60;;;;;;5056082;28;20060;-76
2021/08/31 03:43:40;;;;;;;29.77;18.42;;;20.50;93.60;;;;;;5052567;28;20024;-75
2021/08/31 03:46:05;;;;;;;31.10;19.70;;;20.50;93.70;;;;;;5034830;28;20105;-82
2021/08/31 03:48:31;;;;;;;32.80;20.38;;;20.40;93.70;;;;;;5033755;28;20411;-76
2021/08/31 03:50:57;;;;;;;34.72;20.17;;;20.40;93.50;;;;;;5033555;28;20391;-76
2021/08/31 03:53:22;;;;;;;31.42;18.67;;;20.50;93.50;;;;;;5033777;28;20084;-75
2021/08/31 03:55:48;;;;;;;32.42;19.10;;;20.40;93.40;;;;;;5035107;28;20116;-83
2021/08/31 03:58:14;;;;;;;28.90;18.42;;;20.40;93.50;;;;;;5033951;28;20032;-74
2021/08/31 04:00:39;;;;;;;27.40;18.08;;;20.40;93.60;;;;;;5037270;28;20029;-75
2021/08/31 04:03:05;;;;;;;31.45;18.40;;;20.40;93.60;;;;;;5044017;28;20030;-80
2021/08/31 04:05:31;;;;;;;30.40;18.80;;;20.40;93.40;;;;;;5043304;28;20515;-80
2021/08/31 04:07:57;;;;;;;28.08;17.60;;;20.40;93.40;;;;;;5041294;28;20093;-79
2021/08/31 04:10:23;;;;;;;28.02;17.95;;;20.40;93.30;;;;;;5040118;28;20109;-82
2021/08/31 04:12:48;;;;;;;29.85;18.38;;;20.40;93.30;;;;;;5042308;28;20059;-77
2021/08/31 04:15:14;;;;;;;28.88;18.30;;;20.40;93.50;;;;;;5038059;28;20116;-78
2021/08/31 04:17:40;;;;;;;27.83;18.27;;;20.30;93.50;;;;;;5033402;28;20491;-77
2021/08/31 04:20:07;;;;;;;42.40;27.80;;;20.40;93.60;;;;;;5037120;28;20025;-74
2021/08/31 04:22:33;;;;;;;28.08;17.83;;;20.30;93.50;;;;;;5050568;28;20119;-78
2021/08/31 04:24:58;;;;;;;29.13;18.55;;;20.40;93.60;;;;;;5042329;28;20033;-78
2021/08/31 04:27:24;;;;;;;28.33;18.83;;;20.40;93.60;;;;;;5048248;28;20065;-80
2021/08/31 04:29:53;;;;;;;31.08;19.00;;;20.40;93.50;;;;;;5034095;28;20072;-86
2021/08/31 04:32:18;;;;;;;26.85;17.23;;;20.40;93.40;;;;;;5037592;28;20025;-79
2021/08/31 04:34:52;;;;;;;27.88;18.42;;;20.50;93.40;;;;;;5051642;28;20025;-81
2021/08/31 04:37:18;;;;;;;29.50;19.35;;;20.60;93.10;;;;;;5047709;28;20024;-81
2021/08/31 04:39:44;;;;;;;29.25;19.40;;;20.60;92.80;;;;;;5050746;28;20476;-81
2021/08/31 04:42:10;;;;;;;32.85;19.05;;;20.70;92.70;;;;;;5036745;28;20029;-81
2021/08/31 04:44:36;;;;;;;30.67;19.23;;;20.70;92.40;;;;;;5052365;28;20071;-76
2021/08/31 04:47:02;;;;;;;29.73;18.98;;;20.70;92.30;;;;;;5053827;28;20035;-78
2021/08/31 04:49:28;;;;;;;30.25;18.33;;;20.70;92.20;;;;;;5053124;28;20043;-86
2021/08/31 04:51:54;;;;;;;29.20;18.45;;;20.80;92.00;;;;;;5036329;28;20527;-77
2021/08/31 04:54:20;;;;;;;27.95;18.48;;;20.80;91.80;;;;;;5048566;28;20035;-81
2021/08/31 04:56:46;;;;;;;28.38;18.00;;;20.80;91.60;;;;;;5040826;28;20041;-80
2021/08/31 04:59:12;;;;;;;26.05;17.25;;;20.90;91.30;;;;;;5046306;28;20030;-79
2021/08/31 05:01:37;;;;;;;26.85;17.77;;;20.90;91.20;;;;;;5052398;28;20113;-80
2021/08/31 05:04:03;;;;;;;25.75;17.48;;;20.90;91.00;;;;;;5041745;28;20045;-79
2021/08/31 05:06:30;;;;;;;24.42;16.23;;;20.90;91.00;;;;;;5054663;28;20471;-79
2021/08/31 05:08:56;;;;;;;25.63;16.50;;;20.90;90.90;;;;;;5047190;28;20026;-82
2021/08/31 05:11:22;;;;;;;23.30;16.15;;;21.00;90.80;;;;;;5053869;28;20486;-80
2021/08/31 05:13:47;;;;;;;23.88;15.85;;;21.00;90.60;;;;;;5051709;28;20090;-80
2021/08/31 05:16:16;;;;;;;20.75;15.27;;;21.00;90.40;;;;;;5035568;28;20029;-80
2021/08/31 05:18:41;;;;;;;20.85;14.65;;;21.00;90.40;;;;;;5033946;28;20075;-80
2021/08/31 05:21:08;;;;;;;21.48;15.40;;;21.00;90.30;;;;;;5036547;28;20037;-80
2021/08/31 05:23:34;;;;;;;27.52;15.40;;;21.00;90.10;;;;;;5036721;28;20456;-80
2021/08/31 05:26:00;;;;;;;23.70;16.13;;;21.00;90.10;;;;;;5036297;28;20083;-81
2021/08/31 05:28:26;;;;;;;20.60;14.98;;;21.00;90.00;;;;;;5036183;28;20025;-79
2021/08/31 05:30:51;;;;;;;21.52;15.00;;;21.10;89.70;;;;;;5036076;28;20037;-82
2021/08/31 05:33:17;;;;;;;21.35;15.43;;;21.10;89.60;;;;;;5035525;28;20032;-81
2021/08/31 05:35:43;;;;;;;19.00;13.45;;;21.20;89.40;;;;;;5036145;28;20037;-81
2021/08/31 05:38:08;;;;;;;22.00;14.32;;;21.20;88.90;;;;;;5036349;28;20064;-81
2021/08/31 05:40:34;;;;;;;19.85;14.13;;;21.20;88.50;;;;;;5036002;28;20415;-80
2021/08/31 05:43:00;;;;;;;20.15;13.90;;;21.30;88.30;;;;;;5034732;28;20438;-80
2021/08/31 05:45:28;;;;;;;19.63;13.52;;;21.30;88.00;;;;;;5036349;28;20033;-81
2021/08/31 05:47:54;;;;;;;18.50;13.80;;;21.30;87.70;;;;;;5034534;28;20868;-81
2021/08/31 05:50:20;;;;;;;17.98;13.57;;;21.30;87.20;;;;;;5034610;28;20040;-81
2021/08/31 05:52:45;;;;;;;20.73;13.85;;;21.40;86.90;;;;;;5036239;28;20034;-82
2021/08/31 05:55:11;;;;;;;19.95;13.48;;;21.40;86.70;;;;;;5035573;28;20471;-82
2021/08/31 05:57:37;;;;;;;19.40;13.70;;;21.50;86.40;;;;;;5035713;28;20029;-81
2021/08/31 06:00:04;;;;;;;19.42;13.90;;;21.50;85.80;;;;;;5034699;28;20065;-81
2021/08/31 06:02:30;;;;;;;21.20;12.43;;;21.50;85.90;;;;;;5039079;28;20065;-80
2021/08/31 06:04:56;;;;;;;17.85;12.52;;;21.60;86.00;;;;;;5054275;28;20495;-81
2021/08/31 06:07:24;;;;;;;17.33;12.77;;;21.70;85.30;;;;;;5054235;28;20438;-81
2021/08/31 06:09:49;;;;;;;17.30;12.90;;;21.80;84.70;;;;;;5053839;28;20538;-80
2021/08/31 06:12:15;;;;;;;17.75;12.68;;;21.90;84.20;;;;;;5055288;28;20104;-81
2021/08/31 06:14:41;;;;;;;18.48;12.82;;;21.90;83.60;;;;;;5055300;28;20056;-81
2021/08/31 06:17:07;;;;;;;15.98;11.63;;;22.00;83.30;;;;;;5053928;28;20056;-81
2021/08/31 06:19:34;;;;;;;17.08;11.88;;;22.00;83.00;;;;;;5054052;28;20454;-80
2021/08/31 06:22:00;;;;;;;18.23;12.45;;;22.10;82.90;;;;;;5055794;28;20063;-79
2021/08/31 06:24:27;;;;;;;16.10;11.80;;;22.20;83.30;;;;;;5053949;28;20471;-79
2021/08/31 06:26:57;;;;;;;17.73;12.82;;;22.30;82.40;;;;;;5053760;28;20120;-79
2021/08/31 06:29:23;;;;;;;18.02;12.27;;;22.50;82.10;;;;;;5053823;28;20135;-78
2021/08/31 06:31:49;;;;;;;16.40;13.25;;;22.70;81.30;;;;;;5055512;28;20495;-79
2021/08/31 06:34:14;;;;;;;18.73;14.68;;;22.90;80.20;;;;;;5039453;28;20036;-79
2021/08/31 06:36:40;;;;;;;21.60;14.43;;;23.00;79.30;;;;;;5034565;28;20059;-79
2021/08/31 06:39:06;;;;;;;21.13;13.68;;;23.30;78.50;;;;;;5035156;28;20026;-80
2021/08/31 06:41:31;;;;;;;17.33;14.20;;;23.40;78.10;;;;;;5037204;28;20032;-80
2021/08/31 06:43:57;;;;;;;18.20;14.45;;;23.80;77.50;;;;;;5044706;28;20109;-79
2021/08/31 06:46:23;;;;;;;18.05;13.50;;;24.20;76.10;;;;;;5044461;28;20025;-80
2021/08/31 06:48:51;;;;;;;16.55;12.45;;;24.70;74.80;;;;;;5039286;28;20079;-79
2021/08/31 06:51:16;;;;;;;14.60;10.48;;;25.20;72.70;;;;;;5035580;28;20034;-79
2021/08/31 06:53:45;;;;;;;15.18;9.70;;;25.80;71.30;;;;;;5034945;28;20030;-79
2021/08/31 06:56:10;;;;;;;11.73;9.48;;;26.20;69.40;;;;;;5034958;28;20037;-81
2021/08/31 06:58:36;;;;;;;13.40;9.30;;;26.70;68.20;;;;;;5033260;28;20026;-79
2021/08/31 07:01:03;;;;;;;10.68;8.25;;;27.20;67.30;;;;;;5033314;28;20029;-79
2021/08/31 07:03:28;;;;;;;10.48;8.05;;;28.00;65.70;;;;;;5049041;28;20044;-79
2021/08/31 07:05:54;;;;;;;10.32;7.45;;;28.90;63.70;;;;;;5051681;28;20053;-80
2021/08/31 07:08:29;;;;;;;8.68;7.47;;;29.70;61.50;;;;;;5034654;28;20436;-79
2021/08/31 07:10:56;;;;;;;10.95;7.88;;;30.30;59.90;;;;;;5034412;28;20076;-80
2021/08/31 07:13:23;;;;;;;10.93;7.20;;;31.00;58.70;;;;;;5032943;28;20079;-80
2021/08/31 07:15:48;;;;;;;10.43;7.05;;;31.60;57.30;;;;;;5034439;28;20045;-80
2021/08/31 07:18:14;;;;;;;9.93;7.07;;;32.10;56.20;;;;;;5034383;28;20475;-79
2021/08/31 07:20:40;;;;;;;8.50;6.03;;;32.40;55.00;;;;;;5034205;28;20032;-80
2021/08/31 07:23:06;;;;;;;15.05;6.70;;;32.70;54.40;;;;;;5034069;28;20028;-80
2021/08/31 07:25:39;;;;;;;12.27;6.78;;;32.90;53.10;;;;;;5033033;28;20036;-80
2021/08/31 07:28:07;;;;;;;8.30;5.50;;;32.90;52.20;;;;;;5033106;28;20025;-79
2021/08/31 07:30:35;;;;;;;10.40;5.95;;;33.10;52.10;;;;;;5032379;28;20041;-80
2021/08/31 07:33:02;;;;;;;8.27;5.75;;;33.60;51.70;;;;;;5034185;28;20040;-79
2021/08/31 07:35:28;;;;;;;6.43;5.10;;;34.10;51.10;;;;;;5032857;28;20029;-79
2021/08/31 07:37:53;;;;;;;6.45;4.63;;;34.10;49.70;;;;;;5032837;28;20051;-79
2021/08/31 07:40:21;;;;;;;8.27;4.70;;;34.30;48.80;;;;;;5033947;28;20495;-80
2021/08/31 07:42:52;;;;;;;6.95;4.80;;;34.50;48.70;;;;;;5033171;28;20468;-79
2021/08/31 07:45:18;;;;;;;5.90;4.60;;;34.50;48.40;;;;;;5033922;28;20067;-79
2021/08/31 07:47:43;;;;;;;7.63;4.90;;;34.60;47.90;;;;;;5034148;28;20029;-79
2021/08/31 07:50:09;;;;;;;7.15;4.20;;;34.80;46.90;;;;;;5033641;28;20040;-79
2021/08/31 07:52:36;;;;;;;6.85;4.10;;;34.90;46.60;;;;;;5032699;28;20071;-79
2021/08/31 07:55:04;;;;;;;5.95;4.40;;;35.10;46.10;;;;;;5033849;28;20034;-79
2021/08/31 07:57:29;;;;;;;6.70;4.35;;;35.30;45.80;;;;;;5032505;28;20033;-79
2021/08/31 07:59:55;;;;;;;5.53;4.25;;;35.50;45.40;;;;;;5031175;28;20171;-80
2021/08/31 08:02:21;;;;;;;7.53;4.30;;;35.60;45.50;;;;;;5032454;28;20081;-80
2021/08/31 08:04:47;;;;;;;5.95;4.20;;;35.40;45.40;;;;;;5032384;28;20056;-80
2021/08/31 08:07:12;;;;;;;6.60;3.60;;;35.50;45.30;;;;;;5032611;28;20407;-80
2021/08/31 08:09:38;;;;;;;6.93;3.30;;;35.30;44.50;;;;;;5034234;28;20037;-79
2021/08/31 08:12:04;;;;;;;6.82;3.50;;;35.30;44.30;;;;;;5034078;28;20033;-78
2021/08/31 08:14:31;;;;;;;4.50;3.13;;;35.20;43.60;;;;;;5034295;28;20442;-82
2021/08/31 08:16:56;;;;;;;4.90;3.20;;;35.00;43.20;;;;;;5034899;28;20064;-78
2021/08/31 08:19:22;;;;;;;6.00;3.50;;;35.10;43.80;;;;;;5048682;28;20026;-78
2021/08/31 08:21:48;;;;;;;7.28;3.55;;;35.50;43.60;;;;;;5053914;28;20009;-79
2021/08/31 08:24:14;;;;;;;6.97;3.30;;;35.80;43.10;;;;;;5051662;28;20448;-79
2021/08/31 08:26:39;;;;;;;6.93;3.83;;;36.00;43.20;;;;;;5040785;28;20033;-77
2021/08/31 08:29:06;;;;;;;4.20;3.10;;;36.10;42.70;;;;;;5032961;28;20025;-79
2021/08/31 08:31:33;;;;;;;6.70;3.28;;;36.00;42.20;;;;;;5033062;28;20077;-79
2021/08/31 08:34:02;;;;;;;6.35;3.05;;;35.80;42.20;;;;;;5035115;28;20036;-80
2021/08/31 08:36:28;;;;;;;5.10;2.92;;;35.70;42.10;;;;;;5036211;28;20032;-79
2021/08/31 08:38:54;;;;;;;6.10;3.10;;;35.70;42.00;;;;;;5036029;28;20025;-80
2021/08/31 08:41:20;;;;;;;5.07;3.22;;;35.80;42.70;;;;;;5036517;28;20144;-80
2021/08/31 08:43:48;;;;;;;4.20;2.70;;;36.00;42.30;;;;;;5036069;28;20356;-79
2021/08/31 08:46:15;;;;;;;4.47;2.83;;;36.40;41.70;;;;;;5037400;28;20029;-80
2021/08/31 08:48:40;;;;;;;5.32;3.30;;;36.60;41.10;;;;;;5036044;28;20021;-80
2021/08/31 08:51:06;;;;;;;5.93;3.00;;;36.80;40.70;;;;;;5036885;28;20034;-80
2021/08/31 08:53:34;;;;;;;4.15;2.60;;;36.90;40.60;;;;;;5035857;28;20426;-81
2021/08/31 08:56:01;;;;;;;6.63;2.80;;;37.10;40.50;;;;;;5036307;28;20376;-81
2021/08/31 08:58:27;;;;;;;5.70;2.70;;;37.20;40.50;;;;;;5036175;28;20029;-80
2021/08/31 09:01:05;;;;;;;5.50;2.45;;;37.40;40.50;;;;;;5048353;28;20466;-80
2021/08/31 09:03:33;;;;;;;3.83;2.70;;;37.50;40.30;;;;;;5055577;28;20178;-80
2021/08/31 09:06:12;;;;;;;3.33;2.50;;;37.70;39.70;;;;;;5057182;28;20045;-81
2021/08/31 09:08:54;;;;;;;4.47;2.90;;;37.80;39.40;;;;;;5055638;28;20476;-80
2021/08/31 09:11:30;;;;;;;3.58;2.50;;;37.80;39.10;;;;;;5055474;28;20131;-80
2021/08/31 09:14:27;;;;;;;3.92;2.50;;;37.80;38.80;;;;;;5056903;28;20023;-80
2021/08/31 09:17:04;;;;;;;5.13;2.53;;;37.60;38.30;;;;;;5056642;28;20060;-80
2021/08/31 09:19:41;;;;;;;4.65;3.40;;;37.50;38.20;;;;;;5055209;28;20486;-80
2021/08/31 09:22:18;;;;;;;4.20;3.10;;;37.40;38.00;;;;;;5056752;28;20075;-80
2021/08/31 09:25:07;;;;;;;5.30;2.78;;;37.20;38.10;;;;;;5055557;28;20025;-80
2021/08/31 09:27:34;;;;;;;3.90;2.35;;;36.50;38.80;;;;;;5056695;28;20029;-82
2021/08/31 09:30:24;;;;;;;4.78;3.00;;;36.30;39.60;;;;;;5053585;28;20082;-81
2021/08/31 09:33:12;;;;;;;5.90;2.72;;;36.30;39.60;;;;;;5054859;28;20383;-79
2021/08/31 09:35:43;;;;;;;4.78;3.08;;;36.20;39.10;;;;;;5055376;28;20406;-79
2021/08/31 09:38:16;;;;;;;4.63;2.95;;;36.40;38.80;;;;;;5056093;28;20482;-80
2021/08/31 09:40:47;;;;;;;4.28;2.60;;;36.50;38.80;;;;;;5056521;28;20036;-80
2021/08/31 09:43:17;;;;;;;4.15;2.40;;;36.40;39.00;;;;;;5054889;28;20033;-80
2021/08/31 09:45:47;;;;;;;4.35;2.55;;;36.40;39.00;;;;;;5055455;28;20044;-80
2021/08/31 09:48:17;;;;;;;7.25;3.00;;;36.40;38.80;;;;;;5054779;28;20074;-80
2021/08/31 09:50:52;;;;;;;8.02;3.78;;;36.50;38.60;;;;;;5056186;28;20048;-80
2021/08/31 09:53:23;;;;;;;6.70;3.22;;;36.70;38.00;;;;;;5053467;28;20025;-79
2021/08/31 09:56:12;;;;;;;4.45;2.60;;;36.70;37.70;;;;;;5058954;28;20059;-80
2021/08/31 09:58:40;;;;;;;5.30;2.55;;;36.70;37.70;;;;;;5072070;28;20021;-79
2021/08/31 10:01:06;;;;;;;4.40;2.10;;;36.40;38.20;;;;;;5066015;28;20029;-79
2021/08/31 10:03:33;;;;;;;3.25;2.20;;;36.30;38.20;;;;;;5059180;28;20100;-81
2021/08/31 10:06:00;;;;;;;3.70;2.03;;;36.00;38.70;;;;;;5055794;28;20122;-80
2021/08/31 10:08:31;;;;;;;4.20;2.30;;;35.80;38.20;;;;;;5055633;28;20112;-79
2021/08/31 10:10:59;;;;;;;2.75;2.10;;;36.00;38.30;;;;;;5054935;28;20029;-80
2021/08/31 10:13:27;;;;;;;4.28;2.00;;;36.40;37.80;;;;;;5055673;28;20126;-80
2021/08/31 10:15:55;;;;;;;3.35;2.50;;;36.50;37.60;;;;;;5055617;28;20372;-80
2021/08/31 10:18:23;;;;;;;2.95;2.10;;;36.60;37.90;;;;;;5055676;28;20029;-80
2021/08/31 10:21:10;;;;;;;3.75;2.00;;;36.80;37.90;;;;;;5053925;28;20490;-80
2021/08/31 10:23:43;;;;;;;4.25;2.10;;;36.90;37.10;;;;;;5054037;28;20025;-79
2021/08/31 10:26:29;;;;;;;3.88;1.83;;;36.70;36.90;;;;;;5054006;28;20033;-78
2021/08/31 10:29:13;;;;;;;3.63;1.90;;;36.40;37.50;;;;;;5055429;28;20455;-78
2021/08/31 10:31:43;;;;;;;2.97;2.00;;;36.10;37.00;;;;;;5055144;28;20196;-78
2021/08/31 10:34:30;;;;;;;4.07;1.83;;;36.00;37.50;;;;;;5055486;28;20111;-80
2021/08/31 10:37:02;;;;;;;4.10;1.95;;;36.00;37.40;;;;;;5055168;28;20025;-80
2021/08/31 10:39:43;;;;;;;2.67;2.17;;;35.70;37.40;;;;;;5055084;28;20025;-79
2021/08/31 10:42:10;;;;;;;3.25;2.10;;;34.80;38.30;;;;;;5053830;28;20025;-79
2021/08/31 10:44:41;;;;;;;3.67;2.13;;;34.00;39.40;;;;;;5054932;28;20057;-79
2021/08/31 10:47:12;;;;;;;4.57;2.17;;;33.40;40.40;;;;;;5055008;28;20413;-79
2021/08/31 10:50:01;;;;;;;3.17;2.17;;;32.90;41.10;;;;;;5053606;28;20033;-79
2021/08/31 10:52:49;;;;;;;7.50;2.28;;;32.40;41.40;;;;;;5049238;28;20025;-79
2021/08/31 10:55:24;;;;;;;3.90;2.00;;;32.70;41.20;;;;;;5033932;28;20474;-80
2021/08/31 10:57:57;;;;;;;2.45;1.83;;;33.00;41.30;;;;;;5032698;28;20124;-81
2021/08/31 11:00:27;;;;;;;3.90;1.97;;;33.60;41.00;;;;;;5035367;28;20040;-81
2021/08/31 11:02:53;;;;;;;3.35;2.10;;;34.30;40.60;;;;;;5054870;28;20267;-81
2021/08/31 11:05:22;;;;;;;3.75;1.90;;;34.70;40.00;;;;;;5054491;28;20041;-81
2021/08/31 11:08:08;;;;;;;4.60;2.10;;;34.90;39.60;;;;;;5054569;28;20033;-80
2021/08/31 11:10:39;;;;;;;3.05;2.00;;;35.00;39.20;;;;;;5053820;28;20044;-81
2021/08/31 11:13:12;;;;;;;4.22;2.05;;;35.00;39.00;;;;;;5053719;28;20060;-80
2021/08/31 11:15:39;;;;;;;4.63;2.10;;;34.40;38.60;;;;;;5053241;28;20115;-79
2021/08/31 11:18:13;;;;;;;3.28;2.22;;;34.10;39.30;;;;;;5039822;28;20060;-80
2021/08/31 11:20:40;;;;;;;3.92;2.22;;;34.20;39.40;;;;;;5034607;28;20021;-80
2021/08/31 11:23:10;;;;;;;3.42;2.15;;;34.40;39.90;;;;;;5034437;28;20098;-80
2021/08/31 11:25:47;;;;;;;4.22;2.13;;;34.30;39.40;;;;;;5032628;28;20030;-80
2021/08/31 11:28:17;;;;;;;5.55;2.33;;;34.10;39.60;;;;;;5034579;28;20456;-81
2021/08/31 11:30:52;;;;;;;3.10;2.17;;;34.00;39.60;;;;;;5034323;28;20384;-80
2021/08/31 11:33:18;;;;;;;3.10;2.25;;;33.30;40.70;;;;;;5035335;28;20375;-81
2021/08/31 11:35:45;;;;;;;3.17;2.30;;;32.80;40.70;;;;;;5036888;28;20034;-79
2021/08/31 11:38:11;;;;;;;4.60;2.60;;;32.30;41.30;;;;;;5039280;28;20356;-81
2021/08/31 11:40:38;;;;;;;3.97;2.40;;;31.80;41.50;;;;;;5037622;28;20082;-79
2021/08/31 11:43:04;;;;;;;4.07;2.60;;;31.60;42.00;;;;;;5037665;28;20482;-79
2021/08/31 11:45:41;;;;;;;3.47;2.10;;;31.30;42.00;;;;;;5032948;28;20032;-79
2021/08/31 11:48:08;;;;;;;5.47;2.33;;;31.00;42.10;;;;;;5041567;28;20116;-80
2021/08/31 11:50:35;;;;;;;3.40;2.30;;;30.60;42.60;;;;;;5053826;28;20032;-79
2021/08/31 11:53:18;;;;;;;3.88;2.60;;;30.20;43.60;;;;;;5053830;28;20392;-79
2021/08/31 11:55:53;;;;;;;3.05;2.30;;;29.90;44.40;;;;;;5054064;28;20409;-79
2021/08/31 11:58:18;;;;;;;;;;;29.50;45.30;;;;;;5054061;28;20372;-79
2021/08/31 12:00:45;;;;;;;5.47;2.95;;;29.50;45.10;;;;;;5053369;28;19908;-79
2021/08/31 12:03:25;;;;;;;5.55;2.50;;;29.50;45.70;;;;;;5053669;28;20029;-80
2021/08/31 12:05:58;;;;;;;4.35;2.80;;;29.50;46.20;;;;;;5052107;28;20142;-80
2021/08/31 12:08:26;;;;;;;4.18;2.13;;;29.70;45.80;;;;;;5053324;28;20033;-79
2021/08/31 12:10:54;;;;;;;4.78;2.35;;;29.90;46.10;;;;;;5053332;28;20043;-79
2021/08/31 12:13:21;;;;;;;3.03;2.20;;;29.90;45.70;;;;;;5053510;28;20029;-79
2021/08/31 12:15:49;;;;;;;3.47;2.55;;;29.90;46.00;;;;;;5041071;28;20051;-79
2021/08/31 12:18:17;;;;;;;2.78;2.03;;;29.60;46.10;;;;;;5033535;28;20025;-79
2021/08/31 12:20:43;;;;;;;3.22;2.22;;;29.40;45.90;;;;;;5033725;28;20064;-79
2021/08/31 12:23:10;;;;;;;4.53;2.50;;;29.20;46.60;;;;;;5033397;28;20032;-79
2021/08/31 12:25:40;;;;;;;5.30;2.40;;;28.90;47.00;;;;;;5033307;28;20540;-79
2021/08/31 12:28:06;;;;;;;4.47;2.30;;;28.60;47.10;;;;;;5032253;28;20421;-79
2021/08/31 12:30:36;;;;;;;5.25;2.30;;;28.40;47.40;;;;;;5033362;28;20076;-79
2021/08/31 12:33:03;;;;;;;3.25;2.22;;;28.40;47.90;;;;;;5033346;28;20460;-79
2021/08/31 12:35:30;;;;;;;2.90;2.20;;;28.60;47.90;;;;;;5033466;28;20076;-79
2021/08/31 12:38:21;;;;;;;3.38;2.40;;;28.80;47.80;;;;;;5033423;28;20027;-78
2021/08/31 12:40:53;;;;;;;3.88;2.20;;;28.90;47.40;;;;;;5033498;28;20088;-78
2021/08/31 12:43:20;;;;;;;2.83;2.17;;;28.80;47.30;;;;;;5033303;28;20056;-78